Terminal Aerodrome Forecast
Issued by NWS

Home | Current Version | Previous Version | Graphics & Text | Print | Product List | Glossary On
Versions: 1 2 3 4 5 6 7 8 9 10 11 12 13
000
FTUS42 KMHX 310500
TAFISO
TAF
KISO 310540Z 3106/0106 16003KT P6SM SCT100
     FM310900 00000KT 4SM BR SCT005
     FM311200 19008KT P6SM SCT040
     FM010200 20004KT P6SM SKC
      AMD LTD TO CLD VIS AND WIND=

USA.gov is the U.S. government's official web portal to all federal, state and local government web resources and services.